sensor_id;sensor_type;location;lat;lon;timestamp;P1;durP1;ratioP1;P2;durP2;ratioP2
64842;SDS011;51310;52.198;5.422;2023-04-28T00:00:42;6.75;;;4.03;;
64842;SDS011;51310;52.198;5.422;2023-04-28T00:03:09;6.63;;;3.72;;
64842;SDS011;51310;52.198;5.422;2023-04-28T00:05:35;8.40;;;3.97;;
64842;SDS011;51310;52.198;5.422;2023-04-28T00:08:00;7.25;;;4.13;;
64842;SDS011;51310;52.198;5.422;2023-04-28T00:10:27;6.00;;;3.45;;
64842;SDS011;51310;52.198;5.422;2023-04-28T00:12:54;7.10;;;3.55;;
64842;SDS011;51310;52.198;5.422;2023-04-28T00:15:20;7.82;;;3.63;;
64842;SDS011;51310;52.198;5.422;2023-04-28T00:17:46;6.88;;;3.72;;
64842;SDS011;51310;52.198;5.422;2023-04-28T00:20:12;7.00;;;3.63;;
64842;SDS011;51310;52.198;5.422;2023-04-28T00:22:38;8.30;;;3.75;;
64842;SDS011;51310;52.198;5.422;2023-04-28T00:25:04;5.45;;;3.53;;
64842;SDS011;51310;52.198;5.422;2023-04-28T00:27:34;6.30;;;3.60;;
64842;SDS011;51310;52.198;5.422;2023-04-28T00:30:00;6.82;;;3.55;;
64842;SDS011;51310;52.198;5.422;2023-04-28T00:32:27;6.95;;;3.53;;
64842;SDS011;51310;52.198;5.422;2023-04-28T00:34:53;6.68;;;3.80;;
64842;SDS011;51310;52.198;5.422;2023-04-28T00:37:19;7.90;;;4.03;;
64842;SDS011;51310;52.198;5.422;2023-04-28T00:39:45;5.43;;;3.50;;
64842;SDS011;51310;52.198;5.422;2023-04-28T00:42:13;8.05;;;3.83;;
64842;SDS011;51310;52.198;5.422;2023-04-28T00:44:39;9.82;;;3.80;;
64842;SDS011;51310;52.198;5.422;2023-04-28T00:47:06;8.93;;;3.60;;
64842;SDS011;51310;52.198;5.422;2023-04-28T00:49:34;7.03;;;3.75;;
64842;SDS011;51310;52.198;5.422;2023-04-28T00:52:03;6.03;;;3.35;;
64842;SDS011;51310;52.198;5.422;2023-04-28T00:54:33;5.75;;;3.47;;
64842;SDS011;51310;52.198;5.422;2023-04-28T00:57:00;5.53;;;3.35;;
64842;SDS011;51310;52.198;5.422;2023-04-28T00:59:26;6.15;;;3.92;;
64842;SDS011;51310;52.198;5.422;2023-04-28T01:01:59;6.30;;;3.47;;
64842;SDS011;51310;52.198;5.422;2023-04-28T01:04:25;6.30;;;3.00;;
64842;SDS011;51310;52.198;5.422;2023-04-28T01:06:53;7.50;;;3.85;;
64842;SDS011;51310;52.198;5.422;2023-04-28T01:09:20;8.27;;;3.05;;
64842;SDS011;51310;52.198;5.422;2023-04-28T01:11:46;5.90;;;3.88;;
64842;SDS011;51310;52.198;5.422;2023-04-28T01:14:12;6.50;;;3.72;;
64842;SDS011;51310;52.198;5.422;2023-04-28T01:16:37;5.60;;;3.50;;
64842;SDS011;51310;52.198;5.422;2023-04-28T01:19:06;6.70;;;3.47;;
64842;SDS011;51310;52.198;5.422;2023-04-28T01:21:35;5.57;;;3.15;;
64842;SDS011;51310;52.198;5.422;2023-04-28T01:24:01;5.57;;;3.27;;
64842;SDS011;51310;52.198;5.422;2023-04-28T01:26:30;11.70;;;3.70;;
64842;SDS011;51310;52.198;5.422;2023-04-28T01:28:55;5.27;;;3.40;;
64842;SDS011;51310;52.198;5.422;2023-04-28T01:31:21;8.00;;;3.67;;
64842;SDS011;51310;52.198;5.422;2023-04-28T01:33:47;4.10;;;3.10;;
64842;SDS011;51310;52.198;5.422;2023-04-28T01:36:12;7.45;;;3.72;;
64842;SDS011;51310;52.198;5.422;2023-04-28T01:38:38;7.18;;;3.72;;
64842;SDS011;51310;52.198;5.422;2023-04-28T01:41:04;4.95;;;3.53;;
64842;SDS011;51310;52.198;5.422;2023-04-28T01:43:30;9.55;;;3.65;;
64842;SDS011;51310;52.198;5.422;2023-04-28T01:45:55;9.50;;;4.03;;
64842;SDS011;51310;52.198;5.422;2023-04-28T01:48:21;5.57;;;3.72;;
64842;SDS011;51310;52.198;5.422;2023-04-28T01:50:47;12.32;;;4.80;;
64842;SDS011;51310;52.198;5.422;2023-04-28T01:53:12;10.00;;;3.90;;
64842;SDS011;51310;52.198;5.422;2023-04-28T01:55:38;9.85;;;4.05;;
64842;SDS011;51310;52.198;5.422;2023-04-28T01:58:04;12.82;;;4.70;;
64842;SDS011;51310;52.198;5.422;2023-04-28T02:00:31;7.05;;;3.60;;
64842;SDS011;51310;52.198;5.422;2023-04-28T02:02:56;6.95;;;4.00;;
64842;SDS011;51310;52.198;5.422;2023-04-28T02:05:22;5.55;;;3.60;;
64842;SDS011;51310;52.198;5.422;2023-04-28T02:07:48;8.83;;;4.30;;
64842;SDS011;51310;52.198;5.422;2023-04-28T02:10:13;5.73;;;3.23;;
64842;SDS011;51310;52.198;5.422;2023-04-28T02:12:39;6.03;;;3.60;;
64842;SDS011;51310;52.198;5.422;2023-04-28T02:15:06;6.85;;;3.67;;
64842;SDS011;51310;52.198;5.422;2023-04-28T02:17:33;6.88;;;3.60;;
64842;SDS011;51310;52.198;5.422;2023-04-28T02:19:58;9.63;;;3.73;;
64842;SDS011;51310;52.198;5.422;2023-04-28T02:22:24;6.75;;;3.80;;
64842;SDS011;51310;52.198;5.422;2023-04-28T02:24:50;8.68;;;4.03;;
64842;SDS011;51310;52.198;5.422;2023-04-28T02:27:16;5.70;;;3.67;;
64842;SDS011;51310;52.198;5.422;2023-04-28T02:29:42;6.55;;;3.90;;
64842;SDS011;51310;52.198;5.422;2023-04-28T02:32:08;6.27;;;3.87;;
64842;SDS011;51310;52.198;5.422;2023-04-28T02:34:33;8.90;;;4.53;;
64842;SDS011;51310;52.198;5.422;2023-04-28T02:36:59;9.80;;;4.32;;
64842;SDS011;51310;52.198;5.422;2023-04-28T02:39:25;8.95;;;4.07;;
64842;SDS011;51310;52.198;5.422;2023-04-28T02:41:52;8.88;;;4.07;;
64842;SDS011;51310;52.198;5.422;2023-04-28T02:44:18;7.10;;;3.70;;
64842;SDS011;51310;52.198;5.422;2023-04-28T02:46:45;4.77;;;3.60;;
64842;SDS011;51310;52.198;5.422;2023-04-28T02:49:11;9.52;;;4.05;;
64842;SDS011;51310;52.198;5.422;2023-04-28T02:51:37;5.95;;;4.05;;
64842;SDS011;51310;52.198;5.422;2023-04-28T02:54:03;7.03;;;4.13;;
64842;SDS011;51310;52.198;5.422;2023-04-28T02:56:28;7.43;;;3.70;;
64842;SDS011;51310;52.198;5.422;2023-04-28T02:58:54;6.88;;;4.13;;
64842;SDS011;51310;52.198;5.422;2023-04-28T03:01:20;8.87;;;3.83;;
64842;SDS011;51310;52.198;5.422;2023-04-28T03:03:46;9.50;;;5.32;;
64842;SDS011;51310;52.198;5.422;2023-04-28T03:06:12;8.13;;;4.35;;
64842;SDS011;51310;52.198;5.422;2023-04-28T03:08:38;5.43;;;3.78;;
64842;SDS011;51310;52.198;5.422;2023-04-28T03:11:03;6.03;;;3.65;;
64842;SDS011;51310;52.198;5.422;2023-04-28T03:13:29;8.30;;;4.03;;
64842;SDS011;51310;52.198;5.422;2023-04-28T03:15:55;7.15;;;3.80;;
64842;SDS011;51310;52.198;5.422;2023-04-28T03:18:21;9.15;;;4.40;;
64842;SDS011;51310;52.198;5.422;2023-04-28T03:20:47;6.32;;;4.03;;
64842;SDS011;51310;52.198;5.422;2023-04-28T03:23:13;7.03;;;4.13;;
64842;SDS011;51310;52.198;5.422;2023-04-28T03:25:39;6.95;;;3.55;;
64842;SDS011;51310;52.198;5.422;2023-04-28T03:28:05;5.83;;;3.80;;
64842;SDS011;51310;52.198;5.422;2023-04-28T03:30:31;9.60;;;4.30;;
64842;SDS011;51310;52.198;5.422;2023-04-28T03:32:57;8.50;;;4.30;;
64842;SDS011;51310;52.198;5.422;2023-04-28T03:35:23;8.70;;;4.10;;
64842;SDS011;51310;52.198;5.422;2023-04-28T03:37:48;7.37;;;3.83;;
64842;SDS011;51310;52.198;5.422;2023-04-28T03:40:14;11.07;;;4.57;;
64842;SDS011;51310;52.198;5.422;2023-04-28T03:42:40;6.80;;;4.35;;
64842;SDS011;51310;52.198;5.422;2023-04-28T03:45:06;9.52;;;4.53;;
64842;SDS011;51310;52.198;5.422;2023-04-28T03:47:33;8.87;;;4.23;;
64842;SDS011;51310;52.198;5.422;2023-04-28T03:49:59;5.80;;;3.70;;
64842;SDS011;51310;52.198;5.422;2023-04-28T03:52:24;6.07;;;4.07;;
64842;SDS011;51310;52.198;5.422;2023-04-28T03:54:51;6.77;;;4.00;;
64842;SDS011;51310;52.198;5.422;2023-04-28T03:57:17;7.70;;;4.60;;
64842;SDS011;51310;52.198;5.422;2023-04-28T03:59:42;7.10;;;4.47;;
64842;SDS011;51310;52.198;5.422;2023-04-28T04:02:08;8.70;;;4.20;;
64842;SDS011;51310;52.198;5.422;2023-04-28T04:04:33;7.10;;;3.93;;
64842;SDS011;51310;52.198;5.422;2023-04-28T04:06:59;8.75;;;4.35;;
64842;SDS011;51310;52.198;5.422;2023-04-28T04:09:26;11.02;;;4.68;;
64842;SDS011;51310;52.198;5.422;2023-04-28T04:11:52;7.20;;;4.43;;
64842;SDS011;51310;52.198;5.422;2023-04-28T04:14:17;7.20;;;4.47;;
64842;SDS011;51310;52.198;5.422;2023-04-28T04:16:43;6.07;;;4.10;;
64842;SDS011;51310;52.198;5.422;2023-04-28T04:19:11;8.32;;;4.30;;
64842;SDS011;51310;52.198;5.422;2023-04-28T04:21:37;9.03;;;4.67;;
64842;SDS011;51310;52.198;5.422;2023-04-28T04:24:03;8.52;;;4.15;;
64842;SDS011;51310;52.198;5.422;2023-04-28T04:26:29;9.00;;;4.95;;
64842;SDS011;51310;52.198;5.422;2023-04-28T04:28:54;6.80;;;4.20;;
64842;SDS011;51310;52.198;5.422;2023-04-28T04:31:20;8.07;;;5.00;;
64842;SDS011;51310;52.198;5.422;2023-04-28T04:33:46;10.97;;;5.03;;
64842;SDS011;51310;52.198;5.422;2023-04-28T04:36:12;7.03;;;4.53;;
64842;SDS011;51310;52.198;5.422;2023-04-28T04:38:38;7.53;;;4.88;;
64842;SDS011;51310;52.198;5.422;2023-04-28T04:41:04;8.48;;;4.68;;
64842;SDS011;51310;52.198;5.422;2023-04-28T04:43:29;12.13;;;5.38;;
64842;SDS011;51310;52.198;5.422;2023-04-28T04:45:55;6.80;;;4.27;;
64842;SDS011;51310;52.198;5.422;2023-04-28T04:48:21;8.45;;;4.47;;
64842;SDS011;51310;52.198;5.422;2023-04-28T04:50:46;7.33;;;4.60;;
64842;SDS011;51310;52.198;5.422;2023-04-28T04:53:13;7.38;;;4.38;;
64842;SDS011;51310;52.198;5.422;2023-04-28T04:55:39;6.72;;;4.65;;
64842;SDS011;51310;52.198;5.422;2023-04-28T04:58:04;10.03;;;5.10;;
64842;SDS011;51310;52.198;5.422;2023-04-28T05:00:30;8.33;;;5.10;;
64842;SDS011;51310;52.198;5.422;2023-04-28T05:02:56;10.50;;;4.85;;
64842;SDS011;51310;52.198;5.422;2023-04-28T05:05:21;9.75;;;4.90;;
64842;SDS011;51310;52.198;5.422;2023-04-28T05:07:47;9.90;;;5.28;;
64842;SDS011;51310;52.198;5.422;2023-04-28T05:10:13;9.82;;;5.55;;
64842;SDS011;51310;52.198;5.422;2023-04-28T05:12:39;10.27;;;5.75;;
64842;SDS011;51310;52.198;5.422;2023-04-28T05:15:05;10.48;;;6.10;;
64842;SDS011;51310;52.198;5.422;2023-04-28T05:17:32;11.65;;;6.13;;
64842;SDS011;51310;52.198;5.422;2023-04-28T05:19:58;11.88;;;6.30;;
64842;SDS011;51310;52.198;5.422;2023-04-28T05:22:24;10.50;;;5.80;;
64842;SDS011;51310;52.198;5.422;2023-04-28T05:24:50;9.45;;;5.43;;
64842;SDS011;51310;52.198;5.422;2023-04-28T05:27:17;8.45;;;5.05;;
64842;SDS011;51310;52.198;5.422;2023-04-28T05:29:43;10.13;;;5.25;;
64842;SDS011;51310;52.198;5.422;2023-04-28T05:32:09;9.13;;;5.18;;
64842;SDS011;51310;52.198;5.422;2023-04-28T05:34:34;12.25;;;5.57;;
64842;SDS011;51310;52.198;5.422;2023-04-28T05:37:00;11.70;;;5.90;;
64842;SDS011;51310;52.198;5.422;2023-04-28T05:39:26;10.02;;;4.95;;
64842;SDS011;51310;52.198;5.422;2023-04-28T05:41:51;12.10;;;5.20;;
64842;SDS011;51310;52.198;5.422;2023-04-28T05:44:17;13.27;;;5.27;;
64842;SDS011;51310;52.198;5.422;2023-04-28T05:46:43;11.00;;;5.67;;
64842;SDS011;51310;52.198;5.422;2023-04-28T05:49:09;9.73;;;5.83;;
64842;SDS011;51310;52.198;5.422;2023-04-28T05:51:35;11.75;;;6.22;;
64842;SDS011;51310;52.198;5.422;2023-04-28T05:54:01;9.25;;;5.97;;
64842;SDS011;51310;52.198;5.422;2023-04-28T05:56:27;12.73;;;6.60;;
64842;SDS011;51310;52.198;5.422;2023-04-28T05:58:53;11.10;;;6.45;;
64842;SDS011;51310;52.198;5.422;2023-04-28T06:01:20;10.55;;;6.78;;
64842;SDS011;51310;52.198;5.422;2023-04-28T06:03:46;12.85;;;7.40;;
64842;SDS011;51310;52.198;5.422;2023-04-28T06:06:12;18.38;;;7.50;;
64842;SDS011;51310;52.198;5.422;2023-04-28T06:08:38;12.65;;;7.43;;
64842;SDS011;51310;52.198;5.422;2023-04-28T06:11:04;13.30;;;7.90;;
64842;SDS011;51310;52.198;5.422;2023-04-28T06:13:31;11.45;;;6.95;;
64842;SDS011;51310;52.198;5.422;2023-04-28T06:15:57;11.90;;;7.55;;
64842;SDS011;51310;52.198;5.422;2023-04-28T06:18:23;15.43;;;8.02;;
64842;SDS011;51310;52.198;5.422;2023-04-28T06:20:49;15.97;;;7.93;;
64842;SDS011;51310;52.198;5.422;2023-04-28T06:23:14;18.33;;;7.93;;
64842;SDS011;51310;52.198;5.422;2023-04-28T06:25:40;13.57;;;7.43;;
64842;SDS011;51310;52.198;5.422;2023-04-28T06:28:06;15.37;;;8.60;;
64842;SDS011;51310;52.198;5.422;2023-04-28T06:30:32;13.67;;;8.83;;
64842;SDS011;51310;52.198;5.422;2023-04-28T06:32:59;15.98;;;8.73;;
64842;SDS011;51310;52.198;5.422;2023-04-28T06:35:25;16.00;;;8.07;;
64842;SDS011;51310;52.198;5.422;2023-04-28T06:37:50;16.15;;;8.57;;
64842;SDS011;51310;52.198;5.422;2023-04-28T06:40:16;14.05;;;8.50;;
64842;SDS011;51310;52.198;5.422;2023-04-28T06:42:42;13.88;;;8.10;;
64842;SDS011;51310;52.198;5.422;2023-04-28T06:45:08;15.65;;;8.45;;
64842;SDS011;51310;52.198;5.422;2023-04-28T06:47:34;15.63;;;8.40;;
64842;SDS011;51310;52.198;5.422;2023-04-28T06:50:01;14.97;;;9.13;;
64842;SDS011;51310;52.198;5.422;2023-04-28T06:52:27;15.02;;;9.02;;
64842;SDS011;51310;52.198;5.422;2023-04-28T06:54:54;14.32;;;8.77;;
64842;SDS011;51310;52.198;5.422;2023-04-28T06:57:20;16.70;;;9.07;;
64842;SDS011;51310;52.198;5.422;2023-04-28T06:59:46;14.73;;;8.60;;
64842;SDS011;51310;52.198;5.422;2023-04-28T07:02:11;13.30;;;9.00;;
64842;SDS011;51310;52.198;5.422;2023-04-28T07:04:37;16.17;;;8.85;;
64842;SDS011;51310;52.198;5.422;2023-04-28T07:07:03;18.98;;;9.18;;
64842;SDS011;51310;52.198;5.422;2023-04-28T07:09:33;15.50;;;9.35;;
64842;SDS011;51310;52.198;5.422;2023-04-28T07:11:59;15.30;;;9.95;;
64842;SDS011;51310;52.198;5.422;2023-04-28T07:14:25;17.83;;;10.20;;
64842;SDS011;51310;52.198;5.422;2023-04-28T07:16:50;18.52;;;10.50;;
64842;SDS011;51310;52.198;5.422;2023-04-28T07:19:16;16.53;;;9.50;;
64842;SDS011;51310;52.198;5.422;2023-04-28T07:21:42;14.68;;;9.52;;
64842;SDS011;51310;52.198;5.422;2023-04-28T07:24:08;15.98;;;9.80;;
64842;SDS011;51310;52.198;5.422;2023-04-28T07:26:34;17.00;;;10.80;;
64842;SDS011;51310;52.198;5.422;2023-04-28T07:28:59;17.77;;;10.10;;
64842;SDS011;51310;52.198;5.422;2023-04-28T07:31:26;16.23;;;9.60;;
64842;SDS011;51310;52.198;5.422;2023-04-28T07:33:52;13.75;;;9.05;;
64842;SDS011;51310;52.198;5.422;2023-04-28T07:36:19;28.23;;;11.20;;
64842;SDS011;51310;52.198;5.422;2023-04-28T07:38:45;18.55;;;10.48;;
64842;SDS011;51310;52.198;5.422;2023-04-28T07:41:11;15.13;;;9.73;;
64842;SDS011;51310;52.198;5.422;2023-04-28T07:43:37;15.75;;;9.52;;
64842;SDS011;51310;52.198;5.422;2023-04-28T07:46:05;17.00;;;10.55;;
64842;SDS011;51310;52.198;5.422;2023-04-28T07:48:32;13.70;;;9.88;;
64842;SDS011;51310;52.198;5.422;2023-04-28T07:50:59;20.50;;;11.85;;
64842;SDS011;51310;52.198;5.422;2023-04-28T07:53:25;18.83;;;10.57;;
64842;SDS011;51310;52.198;5.422;2023-04-28T07:55:51;17.00;;;10.38;;
64842;SDS011;51310;52.198;5.422;2023-04-28T07:58:17;15.93;;;10.60;;
64842;SDS011;51310;52.198;5.422;2023-04-28T08:00:42;16.25;;;10.88;;
64842;SDS011;51310;52.198;5.422;2023-04-28T08:03:08;15.17;;;11.03;;
64842;SDS011;51310;52.198;5.422;2023-04-28T08:05:34;20.97;;;11.77;;
64842;SDS011;51310;52.198;5.422;2023-04-28T08:08:00;19.73;;;11.40;;
64842;SDS011;51310;52.198;5.422;2023-04-28T08:10:26;19.80;;;12.38;;
64842;SDS011;51310;52.198;5.422;2023-04-28T08:12:52;17.90;;;11.38;;
64842;SDS011;51310;52.198;5.422;2023-04-28T08:15:18;19.08;;;11.55;;
64842;SDS011;51310;52.198;5.422;2023-04-28T08:17:44;17.23;;;11.80;;
64842;SDS011;51310;52.198;5.422;2023-04-28T08:20:10;15.75;;;11.65;;
64842;SDS011;51310;52.198;5.422;2023-04-28T08:22:39;16.95;;;11.63;;
64842;SDS011;51310;52.198;5.422;2023-04-28T08:25:05;15.60;;;11.00;;
64842;SDS011;51310;52.198;5.422;2023-04-28T08:27:32;18.52;;;11.85;;
64842;SDS011;51310;52.198;5.422;2023-04-28T08:29:58;17.07;;;12.00;;
64842;SDS011;51310;52.198;5.422;2023-04-28T08:32:24;17.60;;;12.05;;
64842;SDS011;51310;52.198;5.422;2023-04-28T08:34:50;18.85;;;11.85;;
64842;SDS011;51310;52.198;5.422;2023-04-28T08:37:15;19.35;;;11.77;;
64842;SDS011;51310;52.198;5.422;2023-04-28T08:39:41;20.73;;;12.52;;
64842;SDS011;51310;52.198;5.422;2023-04-28T08:42:07;16.65;;;11.88;;
64842;SDS011;51310;52.198;5.422;2023-04-28T08:44:37;18.73;;;12.55;;
64842;SDS011;51310;52.198;5.422;2023-04-28T08:47:13;18.45;;;12.43;;
64842;SDS011;51310;52.198;5.422;2023-04-28T08:49:39;21.17;;;12.63;;
64842;SDS011;51310;52.198;5.422;2023-04-28T08:52:10;20.08;;;12.80;;
64842;SDS011;51310;52.198;5.422;2023-04-28T08:54:40;20.75;;;13.02;;
64842;SDS011;51310;52.198;5.422;2023-04-28T08:57:08;19.17;;;11.63;;
64842;SDS011;51310;52.198;5.422;2023-04-28T08:59:40;17.98;;;12.38;;
64842;SDS011;51310;52.198;5.422;2023-04-28T09:02:09;18.00;;;12.50;;
64842;SDS011;51310;52.198;5.422;2023-04-28T09:04:35;22.63;;;13.32;;
64842;SDS011;51310;52.198;5.422;2023-04-28T09:07:00;18.83;;;12.10;;
64842;SDS011;51310;52.198;5.422;2023-04-28T09:09:27;23.10;;;13.33;;
64842;SDS011;51310;52.198;5.422;2023-04-28T09:11:58;20.05;;;12.13;;
64842;SDS011;51310;52.198;5.422;2023-04-28T09:14:26;19.63;;;13.27;;
64842;SDS011;51310;52.198;5.422;2023-04-28T09:16:54;23.20;;;13.30;;
64842;SDS011;51310;52.198;5.422;2023-04-28T09:19:20;17.73;;;13.07;;
64842;SDS011;51310;52.198;5.422;2023-04-28T09:26:57;18.52;;;13.43;;
64842;SDS011;51310;52.198;5.422;2023-04-28T09:29:24;21.08;;;13.30;;
64842;SDS011;51310;52.198;5.422;2023-04-28T09:31:50;20.55;;;13.63;;
64842;SDS011;51310;52.198;5.422;2023-04-28T09:34:17;25.70;;;14.15;;
64842;SDS011;51310;52.198;5.422;2023-04-28T09:36:43;23.13;;;14.77;;
64842;SDS011;51310;52.198;5.422;2023-04-28T09:39:09;19.23;;;14.53;;
64842;SDS011;51310;52.198;5.422;2023-04-28T09:44:13;23.52;;;14.68;;
64842;SDS011;51310;52.198;5.422;2023-04-28T09:46:42;22.17;;;15.32;;
64842;SDS011;51310;52.198;5.422;2023-04-28T09:49:10;21.58;;;13.82;;
64842;SDS011;51310;52.198;5.422;2023-04-28T09:51:37;21.67;;;14.93;;
64842;SDS011;51310;52.198;5.422;2023-04-28T09:54:03;24.13;;;17.05;;
64842;SDS011;51310;52.198;5.422;2023-04-28T09:56:32;25.33;;;16.15;;
64842;SDS011;51310;52.198;5.422;2023-04-28T09:59:02;24.23;;;15.48;;
64842;SDS011;51310;52.198;5.422;2023-04-28T10:01:32;23.25;;;15.90;;
64842;SDS011;51310;52.198;5.422;2023-04-28T10:04:04;23.75;;;15.07;;
64842;SDS011;51310;52.198;5.422;2023-04-28T10:06:32;25.45;;;17.10;;
64842;SDS011;51310;52.198;5.422;2023-04-28T10:09:02;19.90;;;15.40;;
64842;SDS011;51310;52.198;5.422;2023-04-28T10:11:29;18.95;;;15.75;;
64842;SDS011;51310;52.198;5.422;2023-04-28T10:13:57;18.85;;;14.60;;
64842;SDS011;51310;52.198;5.422;2023-04-28T10:16:23;18.95;;;14.30;;
64842;SDS011;51310;52.198;5.422;2023-04-28T10:18:55;19.83;;;14.80;;
64842;SDS011;51310;52.198;5.422;2023-04-28T10:21:21;18.77;;;14.03;;
64842;SDS011;51310;52.198;5.422;2023-04-28T10:29:30;16.98;;;13.35;;
64842;SDS011;51310;52.198;5.422;2023-04-28T10:32:18;18.05;;;13.20;;
64842;SDS011;51310;52.198;5.422;2023-04-28T10:34:50;17.73;;;13.45;;
64842;SDS011;51310;52.198;5.422;2023-04-28T10:37:16;18.95;;;13.00;;
64842;SDS011;51310;52.198;5.422;2023-04-28T10:42:58;17.30;;;12.43;;
64842;SDS011;51310;52.198;5.422;2023-04-28T10:56:09;15.60;;;10.90;;
64842;SDS011;51310;52.198;5.422;2023-04-28T10:58:39;13.52;;;10.63;;
64842;SDS011;51310;52.198;5.422;2023-04-28T11:04:05;13.52;;;10.48;;
64842;SDS011;51310;52.198;5.422;2023-04-28T11:06:42;15.07;;;10.27;;
64842;SDS011;51310;52.198;5.422;2023-04-28T11:16:52;15.20;;;10.00;;
64842;SDS011;51310;52.198;5.422;2023-04-28T11:19:20;13.90;;;9.88;;
64842;SDS011;51310;52.198;5.422;2023-04-28T11:21:51;14.57;;;10.88;;
64842;SDS011;51310;52.198;5.422;2023-04-28T11:24:20;13.68;;;10.30;;
64842;SDS011;51310;52.198;5.422;2023-04-28T11:26:51;12.77;;;9.97;;
64842;SDS011;51310;52.198;5.422;2023-04-28T11:29:17;12.35;;;9.65;;
64842;SDS011;51310;52.198;5.422;2023-04-28T11:31:55;11.77;;;9.55;;
64842;SDS011;51310;52.198;5.422;2023-04-28T11:34:21;11.43;;;8.70;;
64842;SDS011;51310;52.198;5.422;2023-04-28T11:36:48;10.90;;;8.35;;
64842;SDS011;51310;52.198;5.422;2023-04-28T11:39:14;12.00;;;8.60;;
64842;SDS011;51310;52.198;5.422;2023-04-28T11:41:40;13.07;;;8.57;;
64842;SDS011;51310;52.198;5.422;2023-04-28T11:44:10;12.23;;;8.80;;
64842;SDS011;51310;52.198;5.422;2023-04-28T11:46:43;12.32;;;8.40;;
64842;SDS011;51310;52.198;5.422;2023-04-28T11:49:26;10.93;;;8.53;;
64842;SDS011;51310;52.198;5.422;2023-04-28T11:51:55;14.65;;;8.35;;
64842;SDS011;51310;52.198;5.422;2023-04-28T11:54:24;14.40;;;9.30;;
64842;SDS011;51310;52.198;5.422;2023-04-28T11:56:53;14.73;;;9.43;;
64842;SDS011;51310;52.198;5.422;2023-04-28T11:59:25;14.65;;;9.23;;
64842;SDS011;51310;52.198;5.422;2023-04-28T12:01:58;12.05;;;8.40;;
64842;SDS011;51310;52.198;5.422;2023-04-28T12:07:02;11.55;;;8.20;;
64842;SDS011;51310;52.198;5.422;2023-04-28T12:09:40;12.25;;;8.05;;
64842;SDS011;51310;52.198;5.422;2023-04-28T12:12:33;12.75;;;8.13;;
64842;SDS011;51310;52.198;5.422;2023-04-28T12:15:03;12.02;;;7.07;;
64842;SDS011;51310;52.198;5.422;2023-04-28T12:17:35;10.30;;;7.17;;
64842;SDS011;51310;52.198;5.422;2023-04-28T12:20:04;11.73;;;7.47;;
64842;SDS011;51310;52.198;5.422;2023-04-28T12:22:45;11.57;;;6.80;;
64842;SDS011;51310;52.198;5.422;2023-04-28T12:25:14;7.83;;;4.80;;
64842;SDS011;51310;52.198;5.422;2023-04-28T12:27:57;7.07;;;4.18;;
64842;SDS011;51310;52.198;5.422;2023-04-28T12:30:32;6.45;;;3.28;;
64842;SDS011;51310;52.198;5.422;2023-04-28T12:33:02;5.07;;;2.88;;
64842;SDS011;51310;52.198;5.422;2023-04-28T12:35:28;4.23;;;2.50;;
64842;SDS011;51310;52.198;5.422;2023-04-28T12:37:54;5.18;;;2.85;;
64842;SDS011;51310;52.198;5.422;2023-04-28T12:40:22;5.65;;;4.10;;
64842;SDS011;51310;52.198;5.422;2023-04-28T12:42:48;5.80;;;4.40;;
64842;SDS011;51310;52.198;5.422;2023-04-28T12:45:15;7.55;;;4.93;;
64842;SDS011;51310;52.198;5.422;2023-04-28T12:47:41;7.35;;;5.18;;
64842;SDS011;51310;52.198;5.422;2023-04-28T12:50:07;7.45;;;4.95;;
64842;SDS011;51310;52.198;5.422;2023-04-28T12:52:33;7.35;;;5.55;;
64842;SDS011;51310;52.198;5.422;2023-04-28T12:55:01;6.43;;;4.88;;
64842;SDS011;51310;52.198;5.422;2023-04-28T12:57:28;8.32;;;5.72;;
64842;SDS011;51310;52.198;5.422;2023-04-28T12:59:54;7.80;;;5.20;;
64842;SDS011;51310;52.198;5.422;2023-04-28T13:02:21;6.72;;;5.30;;
64842;SDS011;51310;52.198;5.422;2023-04-28T13:04:47;7.55;;;5.72;;
64842;SDS011;51310;52.198;5.422;2023-04-28T13:07:13;8.50;;;5.97;;
64842;SDS011;51310;52.198;5.422;2023-04-28T13:09:40;7.90;;;5.67;;
64842;SDS011;51310;52.198;5.422;2023-04-28T13:12:09;8.18;;;5.70;;
64842;SDS011;51310;52.198;5.422;2023-04-28T13:14:35;7.20;;;5.30;;
64842;SDS011;51310;52.198;5.422;2023-04-28T13:17:01;6.70;;;5.43;;
64842;SDS011;51310;52.198;5.422;2023-04-28T13:19:27;6.95;;;6.10;;
64842;SDS011;51310;52.198;5.422;2023-04-28T13:21:55;7.32;;;5.68;;
64842;SDS011;51310;52.198;5.422;2023-04-28T13:24:21;9.48;;;5.75;;
64842;SDS011;51310;52.198;5.422;2023-04-28T13:26:46;7.25;;;5.60;;
64842;SDS011;51310;52.198;5.422;2023-04-28T13:29:12;6.10;;;5.47;;
64842;SDS011;51310;52.198;5.422;2023-04-28T13:31:38;5.32;;;4.40;;
64842;SDS011;51310;52.198;5.422;2023-04-28T13:34:04;5.33;;;4.20;;
64842;SDS011;51310;52.198;5.422;2023-04-28T13:36:31;4.30;;;3.87;;
64842;SDS011;51310;52.198;5.422;2023-04-28T13:38:58;4.80;;;4.05;;
64842;SDS011;51310;52.198;5.422;2023-04-28T13:41:24;4.70;;;4.18;;
64842;SDS011;51310;52.198;5.422;2023-04-28T13:43:50;4.75;;;4.25;;
64842;SDS011;51310;52.198;5.422;2023-04-28T13:46:16;4.68;;;4.18;;
64842;SDS011;51310;52.198;5.422;2023-04-28T13:48:42;4.23;;;3.83;;
64842;SDS011;51310;52.198;5.422;2023-04-28T13:51:08;4.23;;;3.83;;
64842;SDS011;51310;52.198;5.422;2023-04-28T13:53:34;5.53;;;3.80;;
64842;SDS011;51310;52.198;5.422;2023-04-28T13:56:06;4.80;;;4.30;;
64842;SDS011;51310;52.198;5.422;2023-04-28T13:58:32;3.92;;;3.53;;
64842;SDS011;51310;52.198;5.422;2023-04-28T14:00:58;3.10;;;2.80;;
64842;SDS011;51310;52.198;5.422;2023-04-28T14:03:24;3.20;;;2.90;;
64842;SDS011;51310;52.198;5.422;2023-04-28T14:05:51;4.43;;;2.92;;
64842;SDS011;51310;52.198;5.422;2023-04-28T14:08:20;4.40;;;2.55;;
64842;SDS011;51310;52.198;5.422;2023-04-28T14:10:47;4.83;;;3.10;;
64842;SDS011;51310;52.198;5.422;2023-04-28T14:13:14;5.30;;;3.47;;
64842;SDS011;51310;52.198;5.422;2023-04-28T14:15:40;5.53;;;3.80;;
64842;SDS011;51310;52.198;5.422;2023-04-28T14:18:06;5.95;;;3.97;;
64842;SDS011;51310;52.198;5.422;2023-04-28T14:20:33;7.73;;;4.10;;
64842;SDS011;51310;52.198;5.422;2023-04-28T14:22:59;6.27;;;4.33;;
64842;SDS011;51310;52.198;5.422;2023-04-28T14:25:26;7.22;;;4.38;;
64842;SDS011;51310;52.198;5.422;2023-04-28T14:27:52;6.38;;;4.00;;
64842;SDS011;51310;52.198;5.422;2023-04-28T14:30:17;6.82;;;4.00;;
64842;SDS011;51310;52.198;5.422;2023-04-28T14:32:45;7.72;;;4.78;;
64842;SDS011;51310;52.198;5.422;2023-04-28T14:35:12;8.50;;;4.90;;
64842;SDS011;51310;52.198;5.422;2023-04-28T14:37:40;10.13;;;5.75;;
64842;SDS011;51310;52.198;5.422;2023-04-28T14:40:07;10.52;;;6.15;;
64842;SDS011;51310;52.198;5.422;2023-04-28T14:42:34;11.98;;;7.57;;
64842;SDS011;51310;52.198;5.422;2023-04-28T14:45:07;16.48;;;8.27;;
64842;SDS011;51310;52.198;5.422;2023-04-28T14:47:37;17.98;;;8.85;;
64842;SDS011;51310;52.198;5.422;2023-04-28T14:50:04;19.08;;;10.05;;
64842;SDS011;51310;52.198;5.422;2023-04-28T14:52:31;21.95;;;10.32;;
64842;SDS011;51310;52.198;5.422;2023-04-28T14:54:57;22.48;;;11.10;;
64842;SDS011;51310;52.198;5.422;2023-04-28T14:57:24;22.50;;;11.73;;
64842;SDS011;51310;52.198;5.422;2023-04-28T14:59:51;22.65;;;11.32;;
64842;SDS011;51310;52.198;5.422;2023-04-28T15:02:18;24.25;;;11.00;;
64842;SDS011;51310;52.198;5.422;2023-04-28T15:04:50;19.70;;;9.20;;
64842;SDS011;51310;52.198;5.422;2023-04-28T15:07:16;27.33;;;11.00;;
64842;SDS011;51310;52.198;5.422;2023-04-28T15:09:42;26.23;;;11.67;;
64842;SDS011;51310;52.198;5.422;2023-04-28T15:12:08;25.93;;;11.97;;
64842;SDS011;51310;52.198;5.422;2023-04-28T15:14:34;26.17;;;11.77;;
64842;SDS011;51310;52.198;5.422;2023-04-28T15:17:00;28.92;;;12.65;;